Time;durP1;ratioP1;P1;durP2;ratioP2;P2;SDS_P1;SDS_P2;PMS_P1;PMS_P2;Temp;Humidity;BMP_temperature;BMP_pressure;BME280_temperature;BME280_humidity;BME280_pressure;Samples;Min_cycle;Max_cycle;Signal;HPM_P1;HPM_P2
2023/11/10 00:02:17;;;;;;;;;;;;;;;-144.99;100.00;52562.25;5117240;27;20623;-67
2023/11/10 00:04:45;;;;;;;;;;;;;;;-144.99;100.00;52572.44;5110702;27;19924;-67
2023/11/10 00:07:12;;;;;;;;;;;;;;;-144.99;100.00;52592.81;5105960;27;20050;-68
2023/11/10 00:09:38;;;;;;;;;;;;;;;-144.99;100.00;52558.16;5112947;27;20012;-69
2023/11/10 00:12:05;;;;;;;;;;;;;;;-144.99;100.00;52623.38;5112554;27;20341;-69
2023/11/10 00:14:33;;;;;;;;;;;;;;;-144.99;100.00;52594.84;5118453;27;20426;-68
2023/11/10 00:16:59;;;;;;;;;;;;;;;-144.99;100.00;52562.25;5114425;27;19927;-69
2023/11/10 00:19:27;;;;;;;;;;;;;;;-144.99;100.00;52594.84;5104468;28;19946;-70
2023/11/10 00:21:56;;;;;;;;;;;;;;;-144.99;100.00;52570.38;5107427;27;20444;-70
2023/11/10 00:24:23;;;;;;;;;;;;;;;-144.99;100.00;52582.63;5115738;27;20387;-67
2023/11/10 00:26:50;;;;;;;;;;;;;;;-144.99;100.00;52578.53;5108061;28;19928;-72
2023/11/10 00:29:16;;;;;;;;;;;;;;;-144.99;100.00;52586.69;5111444;27;19934;-69
2023/11/10 00:31:45;;;;;;;;;;;;;;;-144.99;100.00;52611.16;5109442;27;19932;-68
2023/11/10 00:34:12;;;;;;;;;;;;;;;-144.99;100.00;52627.47;5112727;27;19992;-68
2023/11/10 00:36:41;;;;;;;;;;;;;;;-144.99;100.00;52574.47;5110761;27;20022;-68
2023/11/10 00:39:07;;;;;;;;;;;;;;;-144.99;100.00;52613.19;5106902;27;19936;-68
2023/11/10 00:41:34;;;;;;;;;;;;;;;-144.99;100.00;52570.38;4754810;28;10000542;-68
2023/11/10 00:44:00;;;;;;;;;;;;;;;-144.99;100.00;52572.44;5105179;27;20023;-69
2023/11/10 00:46:27;;;;;;;;;;;;;;;-144.99;100.00;52576.50;5107336;27;20010;-68
2023/11/10 00:48:53;;;;;;;;;;;;;;;-144.99;100.00;52578.53;5112645;27;20019;-69
2023/11/10 00:51:19;;;;;;;;;;;;;;;-144.99;100.00;52568.34;5108583;27;20338;-68
2023/11/10 00:53:47;;;;;;;;;;;;;;;-144.99;100.00;52584.66;5120002;27;19923;-69
2023/11/10 00:56:14;;;;;;;;;;;;;;;-144.99;100.00;52580.59;5108029;28;20538;-68
2023/11/10 00:58:40;;;;;;;;;;;;;;;-144.99;100.00;52611.16;5112419;27;19927;-68
2023/11/10 01:01:07;;;;;;;;;;;;;;;-144.99;100.00;52564.28;5113632;27;20041;-69
2023/11/10 01:03:34;;;;;;;;;;;;;;;-144.99;100.00;52586.69;5110057;27;19928;-70
2023/11/10 01:06:00;;;;;;;;;;;;;;;-144.99;100.00;52590.78;5108383;28;19924;-65
2023/11/10 01:08:27;;;;;;;;;;;;;;;-144.99;100.00;52586.69;5118606;27;19927;-64
2023/11/10 01:10:55;;;;;;;;;;;;;;;-144.99;100.00;52590.78;5106623;27;19970;-64
2023/11/10 01:13:21;;;;;;;;;;;;;;;-144.99;100.00;52562.25;5111695;27;20004;-64
2023/11/10 01:15:48;;;;;;;;;;;;;;;-144.99;100.00;52582.63;5112421;27;20003;-64
2023/11/10 01:18:15;;;;;;;;;;;;;;;-144.99;100.00;52572.44;5103976;28;19928;-65
2023/11/10 01:20:41;;;;;;;;;;;;;;;-144.99;100.00;52541.84;5113416;27;19934;-66
2023/11/10 01:23:08;;;;;;;;;;;;;;;-144.99;100.00;52603.00;5117724;27;19974;-65
2023/11/10 01:25:35;;;;;;;;;;;;;;;-144.99;100.00;52525.56;5114490;27;19928;-65
2023/11/10 01:28:03;;;;;;;;;;;;;;;-144.99;100.00;52552.03;5115166;27;19930;-65
2023/11/10 01:30:29;;;;;;;;;;;;;;;-144.99;100.00;52592.81;5109840;27;19960;-65
2023/11/10 01:32:56;;;;;;;;;;;;;;;-144.99;100.00;52590.78;5113120;27;19976;-65
2023/11/10 01:35:23;;;;;;;;;;;;;;;-144.99;100.00;52603.00;5117629;27;20127;-65
2023/11/10 01:37:49;;;;;;;;;;;;;;;-144.99;100.00;52558.16;5112624;27;20011;-65
2023/11/10 01:40:16;;;;;;;;;;;;;;;-144.99;100.00;52603.00;5109061;27;20120;-65
2023/11/10 01:42:42;;;;;;;;;;;;;;;-144.99;100.00;52584.66;5115770;27;20302;-65
2023/11/10 01:45:11;;;;;;;;;;;;;;;-144.99;100.00;52615.25;5109241;28;20026;-65
2023/11/10 01:47:39;;;;;;;;;;;;;;;-144.99;100.00;52554.09;5117237;27;19970;-61
2023/11/10 01:50:06;;;;;;;;;;;;;;;-144.99;100.00;52586.69;5109987;27;19932;-63
2023/11/10 01:52:33;;;;;;;;;;;;;;;-144.99;100.00;52623.38;5112397;27;19970;-64
2023/11/10 01:55:00;;;;;;;;;;;;;;;-144.99;100.00;52615.25;5113857;28;20085;-64
2023/11/10 01:57:26;;;;;;;;;;;;;;;-144.99;100.00;52611.16;5112587;28;20381;-63
2023/11/10 01:59:55;;;;;;;;;;;;;;;-144.99;100.00;52607.09;5113644;28;20390;-68
2023/11/10 02:02:23;;;;;;;;;;;;;;;-144.99;100.00;52570.38;5116270;28;20448;-68
2023/11/10 02:04:49;;;;;;;;;;;;;;;-144.99;100.00;52611.16;5114070;28;19969;-68
2023/11/10 02:07:16;;;;;;;;;;;;;;;-144.99;100.00;52560.19;5101133;28;19974;-68
2023/11/10 02:09:43;;;;;;;;;;;;;;;-144.99;100.00;52586.69;5109954;28;20013;-68
2023/11/10 02:12:09;;;;;;;;;;;;;;;-144.99;100.00;52611.16;5118228;28;20431;-68
2023/11/10 02:14:36;;;;;;;;;;;;;;;-144.99;100.00;52584.66;5122087;28;19927;-68
2023/11/10 02:17:03;;;;;;;;;;;;;;;-144.99;100.00;52588.75;5109756;28;19968;-68
2023/11/10 02:19:30;;;;;;;;;;;;;;;-144.99;100.00;52607.09;5112830;27;19981;-66
2023/11/10 02:21:57;;;;;;;;;;;;;;;-144.99;100.00;52570.38;5111686;28;19969;-66
2023/11/10 02:24:25;;;;;;;;;;;;;;;-144.99;100.00;52560.19;5119336;27;19973;-66
2023/11/10 02:26:53;;;;;;;;;;;;;;;-144.99;100.00;52570.38;5112184;28;19970;-67
2023/11/10 02:29:20;;;;;;;;;;;;;;;-144.99;100.00;52574.47;5110723;27;19923;-67
2023/11/10 02:31:47;;;;;;;;;;;;;;;-144.99;100.00;52615.25;5101234;28;20326;-63
2023/11/10 02:34:14;;;;;;;;;;;;;;;-144.99;100.00;52629.50;5112317;27;20412;-69
2023/11/10 02:36:41;;;;;;;;;;;;;;;-144.99;100.00;52586.69;5115990;27;19996;-67
2023/11/10 02:39:09;;;;;;;;;;;;;;;-144.99;100.00;52582.63;5104714;28;19935;-70
2023/11/10 02:41:36;;;;;;;;;;;;;;;-144.99;100.00;52578.53;5114316;27;19927;-71
2023/11/10 02:44:04;;;;;;;;;;;;;;;-144.99;100.00;52590.78;5118344;27;19934;-72
2023/11/10 02:46:30;;;;;;;;;;;;;;;-144.99;100.00;52586.69;5115632;27;19923;-66
2023/11/10 02:48:58;;;;;;;;;;;;;;;-144.99;100.00;52586.69;5119018;27;19924;-66
2023/11/10 02:51:25;;;;;;;;;;;;;;;-144.99;100.00;52574.47;5107302;28;19931;-65
2023/11/10 02:53:52;;;;;;;;;;;;;;;-144.99;100.00;52568.34;5111535;28;20018;-65
2023/11/10 02:56:18;;;;;;;;;;;;;;;-144.99;100.00;52582.63;5111692;27;20020;-70
2023/11/10 02:58:45;;;;;;;;;;;;;;;-144.99;100.00;52584.66;5113066;28;19923;-71
2023/11/10 03:01:20;;;;;;;;;;;;;;;-144.99;100.00;52584.66;5114604;27;20042;-70
2023/11/10 03:03:46;;;;;;;;;;;;;;;-144.99;100.00;52586.69;5118206;27;20034;-67
2023/11/10 03:06:14;;;;;;;;;;;;;;;-144.99;100.00;52541.84;5108237;27;20082;-68
2023/11/10 03:08:40;;;;;;;;;;;;;;;-144.99;100.00;52558.16;5120563;27;20006;-68
2023/11/10 03:11:07;;;;;;;;;;;;;;;-144.99;100.00;52588.75;5114217;27;19999;-67
2023/11/10 03:13:34;;;;;;;;;;;;;;;-144.99;100.00;52521.47;5119507;27;19984;-67
2023/11/10 03:16:00;;;;;;;;;;;;;;;-144.99;100.00;52594.84;5114314;27;19924;-68
2023/11/10 03:18:28;;;;;;;;;;;;;;;-144.99;100.00;52590.78;5111221;28;20381;-68
2023/11/10 03:20:55;;;;;;;;;;;;;;;-144.99;100.00;52554.09;5102659;28;19931;-70
2023/11/10 03:23:21;;;;;;;;;;;;;;;-144.99;100.00;52566.31;5110761;28;19923;-69
2023/11/10 03:25:48;;;;;;;;;;;;;;;-144.99;100.00;52586.69;5111793;28;19924;-68
2023/11/10 03:28:14;;;;;;;;;;;;;;;-144.99;100.00;52615.25;5110589;28;19951;-66
2023/11/10 03:30:41;;;;;;;;;;;;;;;-144.99;100.00;52582.63;5120459;27;20326;-64
2023/11/10 03:33:07;;;;;;;;;;;;;;;-144.99;100.00;52603.00;5114028;27;20008;-65
2023/11/10 03:35:35;;;;;;;;;;;;;;;-144.99;100.00;52545.94;5122197;27;19927;-64
2023/11/10 03:38:03;;;;;;;;;;;;;;;-144.99;100.00;52594.84;5117510;27;19946;-64
2023/11/10 03:40:29;;;;;;;;;;;;;;;-144.99;100.00;52586.69;5113384;27;19924;-65
2023/11/10 03:42:56;;;;;;;;;;;;;;;-144.99;100.00;52664.16;5107639;28;20014;-65
2023/11/10 03:45:22;;;;;;;;;;;;;;;-144.99;100.00;52607.09;5113672;27;19931;-66
2023/11/10 03:47:49;;;;;;;;;;;;;;;-144.99;100.00;52568.34;5119533;27;20361;-67
2023/11/10 03:50:16;;;;;;;;;;;;;;;-144.99;100.00;52562.25;5115718;27;19924;-66
2023/11/10 03:52:44;;;;;;;;;;;;;;;-144.99;100.00;52570.38;5111882;27;19927;-67
2023/11/10 03:55:10;;;;;;;;;;;;;;;-144.99;100.00;52592.81;5115287;27;20384;-68
2023/11/10 03:57:37;;;;;;;;;;;;;;;-144.99;100.00;52590.78;5113921;27;19927;-68
2023/11/10 04:00:04;;;;;;;;;;;;;;;-144.99;100.00;52570.38;5118643;27;19931;-68
2023/11/10 04:02:31;;;;;;;;;;;;;;;-144.99;100.00;52556.13;5117931;27;20002;-67
2023/11/10 04:04:57;;;;;;;;;;;;;;;-144.99;100.00;52578.53;5111146;27;19973;-67
2023/11/10 04:07:24;;;;;;;;;;;;;;;-144.99;100.00;52574.47;5114276;27;20026;-68
2023/11/10 04:09:52;;;;;;;;;;;;;;;-144.99;100.00;52566.31;5115421;27;20313;-67
2023/11/10 04:12:18;;;;;;;;;;;;;;;-144.99;100.00;52570.38;5105383;28;20271;-70
2023/11/10 04:14:46;;;;;;;;;;;;;;;-144.99;100.00;52582.63;5117125;27;20079;-69
2023/11/10 04:17:13;;;;;;;;;;;;;;;-144.99;100.00;52586.69;5109533;28;19985;-70
2023/11/10 04:19:39;;;;;;;;;;;;;;;-144.99;100.00;52594.84;5112454;27;19927;-69
2023/11/10 04:22:07;;;;;;;;;;;;;;;-144.99;100.00;52556.13;5110401;28;19967;-68
2023/11/10 04:24:34;;;;;;;;;;;;;;;-144.99;100.00;52582.63;5117614;27;20022;-69
2023/11/10 04:27:02;;;;;;;;;;;;;;;-144.99;100.00;52607.09;5109833;28;19935;-70
2023/11/10 04:29:29;;;;;;;;;;;;;;;-144.99;100.00;52623.38;5116508;27;20038;-69
2023/11/10 04:31:55;;;;;;;;;;;;;;;-144.99;100.00;52576.50;5105764;27;19923;-69
2023/11/10 04:34:22;;;;;;;;;;;;;;;-144.99;100.00;52586.69;5122468;27;20413;-69
2023/11/10 04:36:48;;;;;;;;;;;;;;;-144.99;100.00;52594.84;5109189;27;19924;-68
2023/11/10 04:39:15;;;;;;;;;;;;;;;-144.99;100.00;52605.03;5108901;28;19963;-68
2023/11/10 04:41:41;;;;;;;;;;;;;;;-144.99;100.00;52550.00;5112262;27;20039;-69
2023/11/10 04:44:09;;;;;;;;;;;;;;;-144.99;100.00;52545.94;5115422;27;19927;-68
2023/11/10 04:46:40;;;;;;;;;;;;;;;-144.99;100.00;52560.19;5111905;27;19923;-69
2023/11/10 04:49:06;;;;;;;;;;;;;;;-144.99;100.00;52558.16;5099148;27;19956;-69
2023/11/10 04:51:33;;;;;;;;;;;;;;;-144.99;100.00;52578.53;5107991;28;19947;-68
2023/11/10 04:53:59;;;;;;;;;;;;;;;-144.99;100.00;52556.13;5120537;27;20432;-64
2023/11/10 04:56:26;;;;;;;;;;;;;;;-144.99;100.00;52570.38;5114680;27;20019;-69
2023/11/10 04:58:53;;;;;;;;;;;;;;;-144.99;100.00;52584.66;5107185;28;19977;-69
2023/11/10 05:01:38;;;;;;;;;;;;;;;-144.99;100.00;52578.53;5136448;27;20345;-77
2023/11/10 05:04:05;;;;;;;;;;;;;;;-144.99;100.00;52570.38;5122584;27;19928;-80
2023/11/10 05:06:32;;;;;;;;;;;;;;;-144.99;100.00;52541.84;5114051;28;19993;-80
2023/11/10 05:08:58;;;;;;;;;;;;;;;-144.99;100.00;52603.00;5108443;28;19933;-80
2023/11/10 05:11:25;;;;;;;;;;;;;;;-144.99;100.00;52576.50;5109879;28;20055;-69
2023/11/10 05:13:51;;;;;;;;;;;;;;;-144.99;100.00;52578.53;5104967;28;19951;-66
2023/11/10 05:16:18;;;;;;;;;;;;;;;-144.99;100.00;52545.94;5106512;28;19981;-67
2023/11/10 05:18:46;;;;;;;;;;;;;;;-144.99;100.00;52590.78;5104442;28;19954;-67
2023/11/10 05:21:13;;;;;;;;;;;;;;;-144.99;100.00;52574.47;5105898;28;20001;-65
2023/11/10 05:23:40;;;;;;;;;;;;;;;-144.99;100.00;52558.16;5107068;28;20020;-72
2023/11/10 05:26:07;;;;;;;;;;;;;;;-144.99;100.00;52592.81;5106094;28;20189;-72
2023/11/10 05:28:34;;;;;;;;;;;;;;;-144.99;100.00;52582.63;5104579;28;20250;-72
2023/11/10 05:31:00;;;;;;;;;;;;;;;-144.99;100.00;52598.94;5105498;28;19947;-72
2023/11/10 05:33:27;;;;;;;;;;;;;;;-144.99;100.00;52576.50;5106229;28;19995;-72
2023/11/10 05:35:55;;;;;;;;;;;;;;;-144.99;100.00;52554.09;5105575;28;20023;-71
2023/11/10 05:38:21;;;;;;;;;;;;;;;-144.99;100.00;52572.44;5103399;28;19970;-71
2023/11/10 05:40:47;;;;;;;;;;;;;;;-144.99;100.00;52590.78;5104800;28;19971;-72
2023/11/10 05:43:14;;;;;;;;;;;;;;;-144.99;100.00;52574.47;5105072;28;20389;-71
2023/11/10 05:45:41;;;;;;;;;;;;;;;-144.99;100.00;52574.47;5104954;28;19935;-71
2023/11/10 05:48:08;;;;;;;;;;;;;;;-144.99;100.00;52578.53;5102112;28;19954;-71
2023/11/10 05:50:35;;;;;;;;;;;;;;;-144.99;100.00;52590.78;5104975;28;19932;-71
2023/11/10 05:53:03;;;;;;;;;;;;;;;-144.99;100.00;52566.31;5097311;28;19971;-64
2023/11/10 05:55:29;;;;;;;;;;;;;;;-144.99;100.00;52545.94;5102765;28;19974;-64
2023/11/10 05:57:56;;;;;;;;;;;;;;;-144.99;100.00;52574.47;5104266;28;20350;-72
2023/11/10 06:00:23;;;;;;;;;;;;;;;-144.99;100.00;52603.00;5105824;27;19971;-72
2023/11/10 06:02:49;;;;;;;;;;;;;;;-144.99;100.00;52570.38;5115396;27;19938;-73
2023/11/10 06:05:17;;;;;;;;;;;;;;;-144.99;100.00;52603.00;5105680;28;19932;-73
2023/11/10 06:07:45;;;;;;;;;;;;;;;-144.99;100.00;52607.09;5104087;28;19928;-73
2023/11/10 06:10:13;;;;;;;;;;;;;;;-144.99;100.00;52576.50;5105639;28;19924;-78
2023/11/10 06:12:41;;;;;;;;;;;;;;;-144.99;100.00;52574.47;5089737;28;19928;-77
2023/11/10 06:15:09;;;;;;;;;;;;;;;-144.99;100.00;52586.69;5093368;28;19928;-77
2023/11/10 06:17:36;;;;;;;;;;;;;;;-144.99;100.00;52611.16;5092742;28;20025;-77
2023/11/10 06:20:03;;;;;;;;;;;;;;;-144.99;100.00;52592.81;5093613;28;20329;-77
2023/11/10 06:22:29;;;;;;;;;;;;;;;-144.99;100.00;52576.50;5092027;28;19959;-78
2023/11/10 06:24:55;;;;;;;;;;;;;;;-144.99;100.00;52613.19;5091441;28;20439;-77
2023/11/10 06:27:24;;;;;;;;;;;;;;;-144.99;100.00;52613.19;5093322;28;19963;-77
2023/11/10 06:29:50;;;;;;;;;;;;;;;-144.99;100.00;52600.97;5098617;28;19931;-76
2023/11/10 06:32:18;;;;;;;;;;;;;;;-144.99;100.00;52594.84;5093092;28;19968;-78
2023/11/10 06:34:44;;;;;;;;;;;;;;;-144.99;100.00;52570.38;5092997;28;19992;-77
2023/11/10 06:37:12;;;;;;;;;;;;;;;-144.99;100.00;52596.88;5092047;28;20131;-78
2023/11/10 06:39:38;;;;;;;;;;;;;;;-144.99;100.00;52566.31;5092557;28;20015;-75
2023/11/10 06:42:05;;;;;;;;;;;;;;;-144.99;100.00;52607.09;5093282;28;19956;-76
2023/11/10 06:44:33;;;;;;;;;;;;;;;-144.99;100.00;52600.97;5089595;28;19925;-78
2023/11/10 06:46:59;;;;;;;;;;;;;;;-144.99;100.00;52594.84;5095496;28;19928;-76
2023/11/10 06:49:26;;;;;;;;;;;;;;;-144.99;100.00;52554.09;5102024;28;19924;-75
2023/11/10 06:51:52;;;;;;;;;;;;;;;-144.99;100.00;52578.53;5094005;28;19932;-76
2023/11/10 06:54:20;;;;;;;;;;;;;;;-144.99;100.00;52552.03;5095751;27;20006;-76
2023/11/10 06:56:46;;;;;;;;;;;;;;;-144.99;100.00;52558.16;5090641;28;19978;-76
2023/11/10 06:59:13;;;;;;;;;;;;;;;-144.99;100.00;52582.63;5090866;28;19923;-76
2023/11/10 07:01:41;;;;;;;;;;;;;;;-144.99;100.00;52607.09;5093699;28;19936;-77
2023/11/10 07:04:08;;;;;;;;;;;;;;;-144.99;100.00;52590.78;5092130;28;20430;-77
2023/11/10 07:06:35;;;;;;;;;;;;;;;-144.99;100.00;52545.94;5090409;28;19967;-76
2023/11/10 07:09:01;;;;;;;;;;;;;;;-144.99;100.00;52580.59;5090147;28;20027;-77
2023/11/10 07:11:28;;;;;;;;;;;;;;;-144.99;100.00;52570.38;5091169;28;19985;-76
2023/11/10 07:13:54;;;;;;;;;;;;;;;-144.99;100.00;52570.38;5083442;28;19924;-76
2023/11/10 07:16:21;;;;;;;;;;;;;;;-144.99;100.00;52550.00;5089440;28;19990;-77
2023/11/10 07:18:51;;;;;;;;;;;;;;;-144.99;100.00;52607.09;5091148;28;20040;-77
2023/11/10 07:21:17;;;;;;;;;;;;;;;-144.99;100.00;52578.53;5097441;28;19968;-78
2023/11/10 07:23:44;;;;;;;;;;;;;;;-144.99;100.00;52578.53;5092278;28;19970;-77
2023/11/10 07:26:10;;;;;;;;;;;;;;;-144.99;100.00;52562.25;5084088;28;19986;-77
2023/11/10 07:28:37;;;;;;;;;;;;;;;-144.99;100.00;52570.38;5089427;22;19931;-69
2023/11/10 07:31:04;;;;;;;;;;;;;;;-144.99;100.00;52590.78;5042193;28;20503;-68
2023/11/10 07:33:30;;;;;;;;;;;;;;;-144.99;100.00;52586.69;5042867;28;19932;-70
2023/11/10 07:35:58;;;;;;;;;;;;;;;-144.99;100.00;52623.38;5041391;28;20330;-69
2023/11/10 07:38:24;;;;;;;;;;;;;;;-144.99;100.00;52598.94;5049445;28;19933;-69
2023/11/10 07:40:51;;;;;;;;;;;;;;;-144.99;100.00;52566.31;5056789;28;19966;-69
2023/11/10 07:43:18;;;;;;;;;;;;;;;-144.99;100.00;52586.69;5057628;28;20116;-70
2023/11/10 07:45:45;;;;;;;;;;;;;;;-144.99;100.00;52570.38;5061827;28;19913;-71
2023/11/10 07:48:13;;;;;;;;;;;;;;;-144.99;100.00;52611.16;5054577;28;20100;-70
2023/11/10 07:50:40;;;;;;;;;;;;;;;-144.99;100.00;52541.84;5042699;28;19929;-70
2023/11/10 07:53:07;;;;;;;;;;;;;;;-144.99;100.00;52600.97;5041545;28;19929;-70
2023/11/10 07:55:34;;;;;;;;;;;;;;;-144.99;100.00;52588.75;5056471;28;19925;-70
2023/11/10 07:58:01;;;;;;;;;;;;;;;-144.99;100.00;52594.84;5053044;28;19925;-70
2023/11/10 08:00:27;;;;;;;;;;;;;;;-144.99;100.00;52558.16;5048234;28;19941;-70
2023/11/10 08:02:54;;;;;;;;;;;;;;;-144.99;100.00;52566.31;5044955;28;19925;-70
2023/11/10 08:05:20;;;;;;;;;;;;;;;-144.99;100.00;52578.53;5043245;28;19984;-70
2023/11/10 08:07:47;;;;;;;;;;;;;;;-144.99;100.00;52562.25;5042126;28;19928;-70
2023/11/10 08:10:16;;;;;;;;;;;;;;;-144.99;100.00;52570.38;5051381;28;19929;-70
2023/11/10 08:12:43;;;;;;;;;;;;;;;-144.99;100.00;52513.31;5034189;28;20023;-70
2023/11/10 08:15:10;;;;;;;;;;;;;;;-144.99;100.00;52566.31;5039754;28;19933;-70
2023/11/10 08:17:36;;;;;;;;;;;;;;;-144.99;100.00;52517.41;5054649;28;20035;-69
2023/11/10 08:20:03;;;;;;;;;;;;;;;-144.99;100.00;52607.09;5055424;28;20111;-69
2023/11/10 08:22:30;;;;;;;;;;;;;;;-144.99;100.00;52586.69;5049058;28;19921;-70
2023/11/10 08:24:57;;;;;;;;;;;;;;;-144.99;100.00;52570.38;5053417;28;19951;-70
2023/11/10 08:27:25;;;;;;;;;;;;;;;-144.99;100.00;52545.94;5050948;28;19913;-69
2023/11/10 08:29:51;;;;;;;;;;;;;;;-144.99;100.00;52586.69;5060144;28;19928;-69
2023/11/10 08:32:18;;;;;;;;;;;;;;;-144.99;100.00;52582.63;5058105;28;19924;-70
2023/11/10 08:34:45;;;;;;;;;;;;;;;-144.99;100.00;52611.16;5053459;28;19929;-69
2023/11/10 08:37:12;;;;;;;;;;;;;;;-144.99;100.00;52596.88;5049931;28;19929;-69
2023/11/10 08:39:38;;;;;;;;;;;;;;;-144.99;100.00;52605.03;5052684;28;19924;-68
2023/11/10 08:42:05;;;;;;;;;;;;;;;-144.99;100.00;52537.78;5041421;28;19933;-69
2023/11/10 08:44:33;;;;;;;;;;;;;;;-144.99;100.00;52582.63;5041595;28;19925;-69
2023/11/10 08:46:59;;;;;;;;;;;;;;;-144.99;100.00;52562.25;5041737;28;19953;-69
2023/11/10 08:49:26;;;;;;;;;;;;;;;-144.99;100.00;52533.69;5041738;28;20375;-69
2023/11/10 08:51:52;;;;;;;;;;;;;;;-144.99;100.00;52554.09;5041592;28;19929;-69
2023/11/10 08:54:19;;;;;;;;;;;;;;;-144.99;100.00;52568.34;5014982;28;20008;-69
2023/11/10 08:56:45;;;;;;;;;;;;;;;-144.99;100.00;52537.78;5037395;28;19968;-69
2023/11/10 08:59:12;;;;;;;;;;;;;;;-144.99;100.00;52558.16;5031142;28;19988;-69
2023/11/10 09:01:40;;;;;;;;;;;;;;;-144.99;100.00;52554.09;5043999;28;19925;-68
2023/11/10 09:04:06;;;;;;;;;;;;;;;-144.99;100.00;52509.25;5039290;28;20371;-69
2023/11/10 09:06:33;;;;;;;;;;;;;;;-144.99;100.00;52562.25;5027881;28;19925;-69
2023/11/10 09:08:59;;;;;;;;;;;;;;;-144.99;100.00;52578.53;5042794;28;19968;-69
2023/11/10 09:11:26;;;;;;;;;;;;;;;-144.99;100.00;52592.81;5032617;28;19925;-69
2023/11/10 09:13:54;;;;;;;;;;;;;;;-144.99;100.00;52562.25;5040113;28;20028;-69
2023/11/10 09:16:20;;;;;;;;;;;;;;;-144.99;100.00;52550.00;5029657;28;20659;-69
2023/11/10 09:18:48;;;;;;;;;;;;;;;-144.99;100.00;52558.16;5031633;28;19990;-68
2023/11/10 09:21:15;;;;;;;;;;;;;;;-144.99;100.00;52550.00;5037049;28;20011;-69
2023/11/10 09:23:42;;;;;;;;;;;;;;;-144.99;100.00;52615.25;5029948;28;19929;-68
2023/11/10 09:26:08;;;;;;;;;;;;;;;-144.99;100.00;52550.00;5029885;28;20011;-69
2023/11/10 09:28:35;;;;;;;;;;;;;;;-144.99;100.00;52582.63;5037328;28;20321;-68
2023/11/10 09:31:01;;;;;;;;;;;;;;;-144.99;100.00;52558.16;5038356;28;19933;-68
2023/11/10 09:33:28;;;;;;;;;;;;;;;-144.99;100.00;52562.25;5027805;28;19943;-68
2023/11/10 09:35:56;;;;;;;;;;;;;;;-144.99;100.00;52554.09;5031614;28;19984;-68
2023/11/10 09:38:23;;;;;;;;;;;;;;;-144.99;100.00;52594.84;5036638;28;20310;-68
2023/11/10 09:40:51;;;;;;;;;;;;;;;-144.99;100.00;52527.59;5033244;28;19944;-68
2023/11/10 09:43:18;;;;;;;;;;;;;;;-144.99;100.00;52594.84;5036680;28;19925;-68
2023/11/10 09:45:48;;;;;;;;;;;;;;;-144.99;100.00;52554.09;5036745;28;19937;-68
2023/11/10 09:48:16;;;;;;;;;;;;;;;-144.99;100.00;52558.16;5038971;28;19986;-68
2023/11/10 09:50:43;;;;;;;;;;;;;;;-144.99;100.00;52578.53;5038638;28;19925;-69
2023/11/10 09:53:13;;;;;;;;;;;;;;;-144.99;100.00;52582.63;5030634;28;19976;-69
2023/11/10 09:55:40;;;;;;;;;;;;;;;-144.99;100.00;52582.63;5043028;28;20286;-69
2023/11/10 09:58:08;;;;;;;;;;;;;;;-144.99;100.00;52554.09;5044880;28;19968;-68
2023/11/10 10:00:36;;;;;;;;;;;;;;;-144.99;100.00;52582.63;5040772;28;20023;-68
2023/11/10 10:03:03;;;;;;;;;;;;;;;-144.99;100.00;52594.84;5038576;28;19933;-68
2023/11/10 10:05:29;;;;;;;;;;;;;;;-144.99;100.00;52607.09;5039141;28;20019;-68
2023/11/10 10:07:56;;;;;;;;;;;;;;;-144.99;100.00;52603.00;5031553;28;19960;-68
2023/11/10 10:10:25;;;;;;;;;;;;;;;-144.99;100.00;52615.25;5043079;28;20378;-68
2023/11/10 10:12:51;;;;;;;;;;;;;;;-144.99;100.00;52576.50;5045921;28;19924;-68
2023/11/10 10:15:25;;;;;;;;;;;;;;;-144.99;100.00;52562.25;5041828;28;19990;-68
2023/11/10 10:17:53;;;;;;;;;;;;;;;-144.99;100.00;52570.38;5039818;28;19971;-68
2023/11/10 10:20:21;;;;;;;;;;;;;;;-144.99;100.00;52578.53;5036219;28;19964;-68
2023/11/10 10:22:49;;;;;;;;;;;;;;;-144.99;100.00;52566.31;5043132;28;19940;-68
2023/11/10 10:25:16;;;;;;;;;;;;;;;-144.99;100.00;52560.19;5042458;28;20020;-67
2023/11/10 10:27:44;;;;;;;;;;;;;;;-144.99;100.00;52570.38;5049432;28;19929;-67
2023/11/10 10:30:11;;;;;;;;;;;;;;;-144.99;100.00;52594.84;5043910;28;20012;-68
2023/11/10 10:32:38;;;;;;;;;;;;;;;-144.99;100.00;52582.63;5047453;28;20160;-68
2023/11/10 10:35:07;;;;;;;;;;;;;;;-144.99;100.00;52568.34;5041295;28;20371;-68
2023/11/10 10:37:35;;;;;;;;;;;;;;;-144.99;100.00;52578.53;5045223;28;20322;-69
2023/11/10 10:40:02;;;;;;;;;;;;;;;-144.99;100.00;52566.31;5039972;28;19932;-69
2023/11/10 10:42:29;;;;;;;;;;;;;;;-144.99;100.00;52586.69;5035026;28;19929;-68
2023/11/10 10:44:58;;;;;;;;;;;;;;;-144.99;100.00;52590.78;5039726;28;20002;-68
2023/11/10 10:47:25;;;;;;;;;;;;;;;-144.99;100.00;52566.31;5042811;28;20379;-68
2023/11/10 10:49:52;;;;;;;;;;;;;;;-144.99;100.00;52576.50;5039627;28;19924;-68
2023/11/10 10:52:19;;;;;;;;;;;;;;;-144.99;100.00;52525.56;5028332;28;20011;-68
2023/11/10 10:54:45;;;;;;;;;;;;;;;-144.99;100.00;52541.84;5031628;28;20016;-68
2023/11/10 10:57:14;;;;;;;;;;;;;;;-144.99;100.00;52554.09;5035898;28;19972;-67
2023/11/10 10:59:42;;;;;;;;;;;;;;;-144.99;100.00;52566.31;5032193;28;19929;-69
2023/11/10 11:02:11;;;;;;;;;;;;;;;-144.99;100.00;52558.16;5036856;28;19931;-69
2023/11/10 11:04:44;;;;;;;;;;;;;;;-144.99;100.00;52572.44;5011008;28;20007;-67
2023/11/10 11:07:23;;;;;;;;;;;;;;;-144.99;100.00;52578.53;5035999;28;20391;-68
2023/11/10 11:10:00;;;;;;;;;;;;;;;-144.99;100.00;52545.94;5037364;28;19983;-68
2023/11/10 11:12:42;;;;;;;;;;;;;;;-144.99;100.00;52590.78;5041828;28;19925;-68
2023/11/10 11:15:16;;;;;;;;;;;;;;;-144.99;100.00;52550.00;5033842;28;20045;-68
2023/11/10 11:18:01;;;;;;;;;;;;;;;-144.99;100.00;52566.31;5039282;28;20346;-68
2023/11/10 11:20:30;;;;;;;;;;;;;;;-144.99;100.00;52529.63;5040790;28;19932;-68
2023/11/10 11:22:57;;;;;;;;;;;;;;;-144.99;100.00;52572.44;5015606;28;20011;-69
2023/11/10 11:25:23;;;;;;;;;;;;;;;-144.99;100.00;52523.50;5037846;28;20398;-68
2023/11/10 11:27:57;;;;;;;;;;;;;;;-144.99;100.00;52529.63;5029276;28;19991;-69
2023/11/10 11:30:33;;;;;;;;;;;;;;;-144.99;100.00;52558.16;5029550;28;20405;-69
2023/11/10 11:33:00;;;;;;;;;;;;;;;-144.99;100.00;52529.63;5024595;28;19935;-67
2023/11/10 11:35:27;;;;;;;;;;;;;;;-144.99;100.00;52505.16;5036994;28;19925;-68
2023/11/10 11:37:55;;;;;;;;;;;;;;;-144.99;100.00;52499.06;5036152;28;19929;-68
2023/11/10 11:40:33;;;;;;;;;;;;;;;-144.99;96.98;52452.16;5038630;28;19929;-68
2023/11/10 11:43:09;;;;;;;;;;;;;;;-144.99;93.09;52488.84;5030838;28;19971;-68
2023/11/10 11:45:38;;;;;;;;;;;;;;;-144.99;92.16;52545.94;5031209;28;19979;-68
2023/11/10 11:48:05;;;;;;;;;;;;;;;-144.99;93.78;52594.84;5038399;28;20294;-68
2023/11/10 11:50:32;;;;;;;;;;;;;;;-144.99;94.67;52509.25;5030412;28;20263;-68
2023/11/10 11:53:00;;;;;;;;;;;;;;;-144.99;96.54;52558.16;5036759;28;20011;-67
2023/11/10 11:55:26;;;;;;;;;;;;;;;-144.99;97.29;52562.25;5031287;28;19925;-68
2023/11/10 11:57:54;;;;;;;;;;;;;;;-144.99;97.76;52574.47;5036497;28;19925;-68
2023/11/10 12:00:21;;;;;;;;;;;;;;;-144.99;98.64;52529.63;5027564;28;19936;-68
2023/11/10 12:02:48;;;;;;;;;;;;;;;-144.99;98.54;52562.25;5033170;28;19925;-68
2023/11/10 12:05:15;;;;;;;;;;;;;;;-144.99;98.86;52533.69;5030949;28;19960;-68
2023/11/10 12:07:42;;;;;;;;;;;;;;;-144.99;99.08;52576.50;5032331;28;20185;-68
2023/11/10 12:10:10;;;;;;;;;;;;;;;-144.99;98.69;52570.38;5029059;28;19929;-67
2023/11/10 12:12:37;;;;;;;;;;;;;;;-144.99;99.50;52590.78;5040916;28;20000;-67
2023/11/10 12:15:04;;;;;;;;;;;;;;;-144.99;99.99;52592.81;5040203;28;20398;-67
2023/11/10 12:17:32;;;;;;;;;;;;;;;-144.99;100.00;52509.25;5038809;28;19978;-68
2023/11/10 12:19:59;;;;;;;;;;;;;;;-144.99;100.00;52615.25;5037391;28;19924;-67